Time;durP1;ratioP1;P1;durP2;ratioP2;P2;SDS_P1;SDS_P2;PMS_P1;PMS_P2;Temp;Humidity;BMP_temperature;BMP_pressure;BME280_temperature;BME280_humidity;BME280_pressure;Samples;Min_cycle;Max_cycle;Signal;HPM_P1;HPM_P2
2022/06/10 00:02:12;;;;;;;9.07;3.40;;;12.90;99.90;;;;;;5006775;28;20453;-76
2022/06/10 00:04:59;;;;;;;3.43;2.80;;;12.90;99.90;;;;;;5011293;28;20471;-76
2022/06/10 00:07:45;;;;;;;11.50;3.33;;;13.00;99.90;;;;;;5011477;28;20526;-76
2022/06/10 00:10:32;;;;;;;3.33;2.60;;;13.10;99.90;;;;;;5007382;28;20609;-76
2022/06/10 00:13:18;;;;;;;9.20;2.87;;;13.00;99.90;;;;;;4998743;28;20917;-76
2022/06/10 00:16:05;;;;;;;6.10;2.70;;;13.10;99.90;;;;;;5002873;28;20442;-76
2022/06/10 00:18:51;;;;;;;7.53;2.83;;;13.10;99.90;;;;;;5014882;28;20483;-76
2022/06/10 00:21:37;;;;;;;9.40;3.37;;;13.20;99.90;;;;;;5011223;28;20535;-76
2022/06/10 00:24:23;;;;;;;3.03;2.67;;;13.30;99.90;;;;;;5002625;28;20790;-76
2022/06/10 00:27:10;;;;;;;5.90;3.00;;;13.20;99.90;;;;;;5011625;28;20470;-76
2022/06/10 00:29:55;;;;;;;5.63;2.40;;;13.00;99.90;;;;;;5015416;28;20451;-76
2022/06/10 00:32:41;;;;;;;4.93;3.07;;;12.90;99.90;;;;;;5010693;28;20440;-76
2022/06/10 00:35:27;;;;;;;3.93;2.70;;;13.00;99.90;;;;;;5009731;28;20815;-76
2022/06/10 00:38:13;;;;;;;7.60;3.03;;;12.80;99.90;;;;;;5013659;28;21012;-76
2022/06/10 00:40:59;;;;;;;5.97;3.30;;;12.80;99.90;;;;;;5006222;28;20976;-76
2022/06/10 00:43:46;;;;;;;5.70;2.80;;;12.70;99.90;;;;;;5013850;28;20500;-76
2022/06/10 00:46:36;;;;;;;7.83;3.20;;;12.70;99.90;;;;;;5015500;28;20460;-76
2022/06/10 00:49:22;;;;;;;7.63;2.80;;;12.90;99.90;;;;;;5002282;28;21170;-76
2022/06/10 00:52:19;;;;;;;4.20;3.37;;;12.80;99.90;;;;;;5005150;28;20432;-76
2022/06/10 00:55:07;;;;;;;5.73;3.17;;;12.80;99.90;;;;;;5017094;28;20472;-76
2022/06/10 00:57:53;;;;;;;3.00;2.60;;;12.70;99.90;;;;;;5019159;28;20682;-76
2022/06/10 01:00:40;;;;;;;5.77;2.83;;;12.70;99.90;;;;;;5011526;28;20459;-76
2022/06/10 01:03:27;;;;;;;8.53;3.10;;;12.70;99.90;;;;;;5009455;28;20385;-76
2022/06/10 01:06:12;;;;;;;7.93;3.33;;;12.70;99.90;;;;;;4995696;28;20413;-76
2022/06/10 01:09:01;;;;;;;6.90;3.13;;;12.70;99.90;;;;;;5008447;28;20485;-76
2022/06/10 01:12:22;;;;;;;6.23;2.70;;;12.80;99.90;;;;;;5015939;28;20868;-76
2022/06/10 01:15:33;;;;;;;3.80;2.60;;;12.90;99.90;;;;;;5002701;28;20640;-76
2022/06/10 01:18:39;;;;;;;5.20;2.60;;;13.00;99.90;;;;;;5012991;28;20440;-76
2022/06/10 01:21:52;;;;;;;8.63;3.17;;;13.00;99.90;;;;;;5012842;28;20437;-76
2022/06/10 01:25:17;;;;;;;12.23;3.37;;;13.00;99.90;;;;;;5007719;28;20443;-76
2022/06/10 01:28:13;;;;;;;9.13;2.80;;;12.90;99.90;;;;;;5018468;28;20965;-76
2022/06/10 01:31:15;;;;;;;6.07;3.10;;;12.80;99.90;;;;;;5011676;28;20506;-76
2022/06/10 01:34:14;;;;;;;8.90;3.30;;;12.70;99.90;;;;;;5014864;28;20432;-76
2022/06/10 01:37:08;;;;;;;4.17;2.50;;;12.60;99.90;;;;;;5009213;28;21039;-76
2022/06/10 01:40:04;;;;;;;5.67;3.40;;;12.60;99.90;;;;;;5006406;28;20554;-76
2022/06/10 01:42:58;;;;;;;3.57;2.77;;;12.70;99.90;;;;;;5019152;28;20692;-76
2022/06/10 01:45:53;;;;;;;3.03;2.57;;;12.70;99.90;;;;;;5018825;28;20572;-76
2022/06/10 01:48:48;;;;;;;4.43;2.83;;;12.60;99.90;;;;;;5010188;28;20884;-76
2022/06/10 01:51:47;;;;;;;5.70;2.90;;;12.50;99.90;;;;;;5007992;28;20594;-76
2022/06/10 01:54:42;;;;;;;4.27;3.40;;;12.40;99.90;;;;;;5009001;28;20436;-76
2022/06/10 01:57:34;;;;;;;4.50;3.10;;;12.50;99.90;;;;;;5003910;28;20454;-76
2022/06/10 02:00:23;;;;;;;5.17;3.57;;;12.30;99.90;;;;;;5010840;28;20473;-76
2022/06/10 02:03:13;;;;;;;8.33;3.67;;;12.20;99.90;;;;;;5013390;28;20431;-76
2022/06/10 02:06:04;;;;;;;4.93;3.77;;;12.20;99.90;;;;;;5012428;28;20416;-76
2022/06/10 02:08:53;;;;;;;13.00;3.50;;;12.00;99.90;;;;;;5007846;28;20419;-76
2022/06/10 02:11:44;;;;;;;9.23;3.63;;;12.10;99.90;;;;;;5003671;28;20447;-76
2022/06/10 02:14:37;;;;;;;7.83;2.83;;;12.20;99.90;;;;;;5006409;28;20446;-76
2022/06/10 02:17:26;;;;;;;5.00;3.40;;;12.20;99.90;;;;;;5013547;28;20423;-76
2022/06/10 02:20:19;;;;;;;5.33;2.90;;;12.20;99.90;;;;;;5011162;28;20504;-76
2022/06/10 02:23:08;;;;;;;8.17;3.10;;;12.30;99.90;;;;;;5019240;28;20437;-76
2022/06/10 02:25:57;;;;;;;4.70;3.07;;;12.30;99.90;;;;;;5013544;28;20910;-76
2022/06/10 02:28:51;;;;;;;5.33;3.20;;;12.30;99.90;;;;;;5015701;28;20448;-76
2022/06/10 02:31:41;;;;;;;5.27;2.87;;;12.20;99.90;;;;;;5015738;28;20501;-76
2022/06/10 02:34:29;;;;;;;5.53;3.07;;;12.30;99.90;;;;;;5012492;28;20436;-76
2022/06/10 02:37:22;;;;;;;5.03;2.70;;;12.40;99.90;;;;;;5013288;28;20447;-76
2022/06/10 02:40:20;;;;;;;4.03;2.53;;;12.40;99.90;;;;;;5018330;28;20464;-76
2022/06/10 02:43:19;;;;;;;8.50;2.40;;;12.40;99.90;;;;;;5017353;28;20490;-76
2022/06/10 02:46:09;;;;;;;7.73;3.20;;;12.40;99.90;;;;;;5019542;28;20472;-76
2022/06/10 02:49:04;;;;;;;5.03;2.50;;;12.20;99.90;;;;;;5010134;28;20503;-76
2022/06/10 02:51:50;;;;;;;9.00;2.80;;;12.10;99.90;;;;;;5012256;28;20419;-76
2022/06/10 02:54:40;;;;;;;4.50;3.03;;;12.10;99.90;;;;;;5012323;28;20416;-76
2022/06/10 03:01:11;;;;;;;8.30;3.30;;;12.10;99.90;;;;;;5020681;28;21067;-76
2022/06/10 03:04:15;;;;;;;7.33;3.17;;;12.10;99.90;;;;;;5021460;28;20773;-76
2022/06/10 03:07:16;;;;;;;4.73;3.30;;;11.90;99.90;;;;;;5012113;28;20443;-76
2022/06/10 03:10:13;;;;;;;6.90;2.80;;;11.90;99.90;;;;;;5005108;28;20521;-76
2022/06/10 03:13:31;;;;;;;6.40;3.20;;;11.80;99.90;;;;;;5013626;28;20427;-76
2022/06/10 03:16:31;;;;;;;3.90;3.10;;;11.70;99.90;;;;;;5019592;28;20452;-76
2022/06/10 03:19:30;;;;;;;6.80;3.00;;;11.60;99.90;;;;;;5004825;28;20484;-76
2022/06/10 03:22:25;;;;;;;10.30;3.43;;;11.60;99.90;;;;;;5011552;28;20441;-76
2022/06/10 03:25:21;;;;;;;10.93;3.73;;;11.70;99.90;;;;;;5008219;28;20475;-76
2022/06/10 03:28:12;;;;;;;5.03;2.73;;;11.80;99.90;;;;;;5020978;28;20987;-76
2022/06/10 03:31:10;;;;;;;4.73;2.87;;;11.90;99.90;;;;;;5008067;28;20428;-76
2022/06/10 03:34:03;;;;;;;3.70;2.67;;;12.00;99.90;;;;;;5011911;28;20428;-76
2022/06/10 03:36:50;;;;;;;3.23;2.87;;;12.10;99.90;;;;;;5007001;28;20459;-76
2022/06/10 03:39:36;;;;;;;6.43;3.33;;;12.10;99.90;;;;;;5003390;28;20481;-76
2022/06/10 03:42:24;;;;;;;3.70;2.60;;;12.00;99.90;;;;;;5016272;28;20484;-76
2022/06/10 03:45:16;;;;;;;6.80;3.00;;;11.80;99.90;;;;;;5021055;28;20432;-76
2022/06/10 03:48:03;;;;;;;8.27;3.43;;;11.80;99.90;;;;;;5010346;28;20470;-76
2022/06/10 03:50:50;;;;;;;5.77;3.27;;;11.90;99.90;;;;;;5009046;28;20914;-76
2022/06/10 03:53:35;;;;;;;5.93;3.50;;;11.90;99.90;;;;;;5006330;28;20428;-76
2022/06/10 03:56:22;;;;;;;4.30;2.70;;;11.80;99.90;;;;;;5021903;28;20539;-76
2022/06/10 03:59:07;;;;;;;4.20;2.60;;;11.80;99.90;;;;;;5011060;28;20444;-76
2022/06/10 04:01:53;;;;;;;6.33;3.33;;;11.90;99.90;;;;;;5011865;28;20415;-76
2022/06/10 04:04:42;;;;;;;5.37;3.63;;;12.00;99.90;;;;;;5014754;28;20504;-76
2022/06/10 04:07:27;;;;;;;4.97;2.73;;;12.00;99.90;;;;;;5021151;28;20616;-76
2022/06/10 04:10:15;;;;;;;6.83;3.20;;;12.00;99.90;;;;;;5007706;28;20445;-76
2022/06/10 04:13:01;;;;;;;5.13;2.70;;;11.90;99.90;;;;;;5011488;28;20466;-76
2022/06/10 04:15:47;;;;;;;7.30;3.13;;;11.80;99.90;;;;;;5011970;28;20411;-76
2022/06/10 04:18:32;;;;;;;5.50;3.13;;;11.80;99.90;;;;;;5017920;28;20535;-76
2022/06/10 04:21:19;;;;;;;5.37;3.00;;;11.90;99.90;;;;;;5011901;28;20603;-76
2022/06/10 04:24:06;;;;;;;10.07;4.60;;;12.00;99.90;;;;;;5014469;28;20431;-76
2022/06/10 04:26:52;;;;;;;4.30;2.97;;;12.10;99.90;;;;;;5020930;28;20494;-76
2022/06/10 04:29:38;;;;;;;3.83;3.10;;;12.20;99.90;;;;;;5005486;28;20565;-76
2022/06/10 04:32:23;;;;;;;3.90;2.83;;;12.20;99.90;;;;;;5014763;28;20423;-76
2022/06/10 04:35:09;;;;;;;4.40;3.10;;;12.20;99.90;;;;;;5018587;28;20895;-76
2022/06/10 04:37:57;;;;;;;4.33;3.00;;;12.30;99.90;;;;;;5007948;28;20471;-75
2022/06/10 04:40:43;;;;;;;6.67;3.17;;;12.40;99.90;;;;;;5016521;28;20459;-75
2022/06/10 04:43:29;;;;;;;6.77;3.17;;;12.50;99.90;;;;;;5021258;28;20443;-74
2022/06/10 04:46:24;;;;;;;8.43;4.10;;;12.60;99.90;;;;;;5015879;28;22731;-75
2022/06/10 04:49:10;;;;;;;5.57;3.20;;;12.60;99.90;;;;;;5008374;28;20468;-75
2022/06/10 04:51:56;;;;;;;13.87;3.33;;;12.60;99.90;;;;;;5012994;28;20510;-75
2022/06/10 04:54:43;;;;;;;4.70;3.23;;;12.60;99.90;;;;;;5015661;28;20419;-75
2022/06/10 04:57:29;;;;;;;7.53;3.97;;;12.70;99.90;;;;;;5015437;28;20465;-75
2022/06/10 05:00:18;;;;;;;5.20;3.70;;;12.70;99.90;;;;;;5013583;28;20575;-75
2022/06/10 05:03:04;;;;;;;4.37;3.30;;;12.80;99.90;;;;;;5010550;28;20432;-75
2022/06/10 05:05:50;;;;;;;3.73;3.23;;;12.90;99.90;;;;;;5015987;28;20563;-75
2022/06/10 05:08:35;;;;;;;4.20;3.40;;;12.90;99.90;;;;;;5014336;28;20950;-75
2022/06/10 05:11:22;;;;;;;6.77;3.60;;;13.10;99.90;;;;;;5016950;28;20465;-75
2022/06/10 05:14:10;;;;;;;5.30;3.20;;;13.20;99.90;;;;;;5019214;28;20423;-75
2022/06/10 05:16:57;;;;;;;8.70;4.17;;;13.40;99.90;;;;;;5010842;28;20485;-74
2022/06/10 05:19:42;;;;;;;12.93;3.80;;;13.50;99.90;;;;;;5012167;28;20946;-75
2022/06/10 05:22:28;;;;;;;6.27;3.90;;;13.60;99.90;;;;;;5020030;28;20449;-75
2022/06/10 05:25:14;;;;;;;6.90;4.20;;;13.70;99.90;;;;;;5013122;28;20555;-75
2022/06/10 05:28:01;;;;;;;9.70;5.27;;;13.90;99.90;;;;;;5005985;28;21048;-75
2022/06/10 05:30:47;;;;;;;8.53;4.30;;;14.00;99.90;;;;;;5014368;28;20419;-75
2022/06/10 05:36:33;;;;;;;5.90;4.27;;;14.10;99.90;;;;;;5013596;28;20532;-75
2022/06/10 05:39:19;;;;;;;8.23;4.63;;;14.20;99.90;;;;;;5005058;28;20443;-75
2022/06/10 05:42:06;;;;;;;9.13;4.40;;;14.30;99.90;;;;;;5017007;28;20569;-75
2022/06/10 05:44:53;;;;;;;5.90;4.70;;;14.40;99.90;;;;;;5018833;28;20443;-74
2022/06/10 05:47:39;;;;;;;16.60;4.30;;;14.50;99.90;;;;;;5014521;28;20472;-75
2022/06/10 05:50:28;;;;;;;6.53;4.03;;;14.50;99.90;;;;;;5023506;28;20432;-75
2022/06/10 05:53:15;;;;;;;6.07;4.07;;;14.60;99.90;;;;;;5016513;28;20428;-75
2022/06/10 05:56:01;;;;;;;7.43;3.80;;;14.70;99.90;;;;;;5014591;28;20444;-75
2022/06/10 05:58:47;;;;;;;6.70;4.87;;;14.80;99.90;;;;;;5012547;28;20419;-75
2022/06/10 06:01:34;;;;;;;7.10;3.60;;;15.00;99.90;;;;;;5020940;28;20978;-75
2022/06/10 06:04:20;;;;;;;7.23;4.20;;;15.10;99.90;;;;;;5012010;28;20432;-75
2022/06/10 06:07:06;;;;;;;11.40;4.40;;;15.20;99.90;;;;;;5014850;28;20524;-75
2022/06/10 06:09:52;;;;;;;5.57;4.13;;;15.30;99.90;;;;;;5012841;28;20415;-75
2022/06/10 06:12:38;;;;;;;13.47;4.17;;;15.40;99.90;;;;;;5020466;28;20934;-76
2022/06/10 06:15:25;;;;;;;9.30;3.80;;;15.50;99.90;;;;;;5021004;28;20453;-76
2022/06/10 06:18:12;;;;;;;7.20;4.60;;;15.60;99.90;;;;;;5011592;28;20442;-76
2022/06/10 06:20:57;;;;;;;5.60;3.90;;;15.70;99.90;;;;;;5018870;28;20547;-76
2022/06/10 06:23:43;;;;;;;8.43;4.43;;;15.80;99.90;;;;;;5015006;28;20419;-76
2022/06/10 06:26:29;;;;;;;8.83;4.40;;;16.00;99.90;;;;;;5009194;28;21003;-76
2022/06/10 06:29:15;;;;;;;8.50;3.67;;;16.10;99.90;;;;;;5014879;28;20420;-76
2022/06/10 06:32:01;;;;;;;12.90;3.80;;;16.10;99.90;;;;;;5017464;28;20432;-76
2022/06/10 06:34:48;;;;;;;7.87;3.60;;;16.20;99.90;;;;;;5010641;28;20805;-76
2022/06/10 06:37:34;;;;;;;8.60;4.00;;;16.40;99.90;;;;;;5014084;28;20957;-76
2022/06/10 06:40:21;;;;;;;6.17;3.23;;;16.40;99.90;;;;;;5018918;28;21043;-76
2022/06/10 06:43:08;;;;;;;4.73;3.60;;;16.50;99.90;;;;;;5019998;28;20451;-76
2022/06/10 06:45:54;;;;;;;6.83;3.93;;;16.60;99.90;;;;;;5014699;28;20931;-76
2022/06/10 06:48:40;;;;;;;10.30;3.43;;;16.80;99.90;;;;;;5010276;28;20438;-76
2022/06/10 06:51:27;;;;;;;7.27;2.77;;;16.90;99.90;;;;;;5020747;28;20815;-76
2022/06/10 06:54:12;;;;;;;8.70;3.57;;;17.00;99.90;;;;;;5021002;28;21085;-76
2022/06/10 06:56:58;;;;;;;5.13;3.50;;;17.10;99.90;;;;;;5002640;28;20936;-76
2022/06/10 06:59:43;;;;;;;17.00;4.10;;;17.10;99.90;;;;;;5019863;28;20438;-76
2022/06/10 07:02:29;;;;;;;8.50;3.73;;;17.10;99.90;;;;;;5017020;28;20481;-76
2022/06/10 07:05:15;;;;;;;9.67;4.00;;;17.20;99.90;;;;;;5019006;28;20419;-76
2022/06/10 07:08:02;;;;;;;4.20;3.50;;;17.30;99.90;;;;;;5005451;28;20469;-76
2022/06/10 07:10:48;;;;;;;10.70;3.97;;;17.40;99.90;;;;;;5022398;28;20960;-76
2022/06/10 07:13:35;;;;;;;5.27;3.63;;;17.50;99.90;;;;;;5014741;28;20523;-76
2022/06/10 07:16:21;;;;;;;9.10;4.60;;;17.50;99.90;;;;;;5006518;28;20482;-76
2022/06/10 07:19:06;;;;;;;14.03;4.10;;;17.50;99.90;;;;;;5015744;28;20807;-76
2022/06/10 07:21:51;;;;;;;8.93;4.27;;;17.40;99.90;;;;;;5020168;28;20503;-76
2022/06/10 07:24:38;;;;;;;5.53;3.50;;;17.40;99.90;;;;;;5021101;28;20510;-76
2022/06/10 07:27:24;;;;;;;6.20;3.40;;;17.50;99.90;;;;;;5009798;28;21071;-76
2022/06/10 07:30:12;;;;;;;8.37;3.97;;;17.70;99.90;;;;;;5014870;28;20809;-75
2022/06/10 07:32:58;;;;;;;6.37;3.90;;;17.80;99.90;;;;;;5014698;28;20462;-76
2022/06/10 07:35:44;;;;;;;5.87;3.70;;;17.90;99.90;;;;;;5011412;28;20797;-76
2022/06/10 07:38:30;;;;;;;9.07;3.80;;;18.10;99.90;;;;;;5012181;28;20956;-76
2022/06/10 07:44:21;;;;;;;9.80;3.50;;;18.30;99.90;;;;;;5015509;28;20805;-76
2022/06/10 07:47:08;;;;;;;14.53;4.53;;;18.40;99.90;;;;;;5008758;28;20467;-76
2022/06/10 07:49:54;;;;;;;7.00;3.83;;;18.50;99.90;;;;;;5017810;28;20439;-76
2022/06/10 07:52:39;;;;;;;5.70;3.57;;;18.50;99.90;;;;;;5019298;28;20961;-76
2022/06/10 07:55:25;;;;;;;7.40;4.37;;;18.60;99.90;;;;;;5017467;28;20457;-75
2022/06/10 07:58:14;;;;;;;8.37;3.83;;;18.50;99.90;;;;;;5011269;28;20584;-76
2022/06/10 08:01:00;;;;;;;9.70;4.20;;;18.50;99.90;;;;;;5013236;28;20797;-76
2022/06/10 08:03:46;;;;;;;9.13;3.87;;;18.60;99.90;;;;;;5018174;28;20899;-76
2022/06/10 08:06:32;;;;;;;13.60;4.17;;;18.80;99.90;;;;;;5013439;28;20552;-76
2022/06/10 08:09:21;;;;;;;6.50;3.77;;;19.00;99.90;;;;;;5017240;28;20495;-76
2022/06/10 08:12:07;;;;;;;10.83;3.93;;;19.10;99.90;;;;;;5011838;28;20527;-76
2022/06/10 08:14:55;;;;;;;5.80;3.70;;;19.20;99.90;;;;;;5012166;28;21021;-76
2022/06/10 08:17:41;;;;;;;11.10;3.60;;;19.30;99.90;;;;;;5019273;28;20440;-76
2022/06/10 08:23:29;;;;;;;9.10;3.40;;;19.40;99.90;;;;;;5010964;28;20492;-76
2022/06/10 08:26:15;;;;;;;8.37;3.13;;;19.40;98.10;;;;;;5001498;28;20920;-76
2022/06/10 08:29:03;;;;;;;5.97;2.63;;;19.50;99.90;;;;;;5005930;28;20492;-76
2022/06/10 08:31:50;;;;;;;7.77;3.33;;;19.60;99.90;;;;;;5020278;28;20523;-76
2022/06/10 08:34:36;;;;;;;4.10;2.60;;;19.80;99.90;;;;;;5008780;28;20980;-75
2022/06/10 08:37:21;;;;;;;8.20;4.20;;;20.00;99.90;;;;;;5004635;28;20488;-76
2022/06/10 08:40:11;;;;;;;5.13;3.00;;;20.10;96.00;;;;;;5017097;28;20542;-76
2022/06/10 08:43:02;;;;;;;7.27;3.30;;;20.10;92.60;;;;;;5018971;28;20515;-76
2022/06/10 08:45:58;;;;;;;6.53;2.93;;;20.10;96.60;;;;;;5010828;28;20456;-76
2022/06/10 08:49:00;;;;;;;5.27;3.23;;;20.20;97.60;;;;;;5019292;28;20556;-76
2022/06/10 08:51:53;;;;;;;9.40;3.70;;;20.10;93.30;;;;;;5017716;28;20457;-76
2022/06/10 08:54:45;;;;;;;6.17;3.40;;;20.10;92.20;;;;;;5013723;28;21031;-76
2022/06/10 08:57:35;;;;;;;7.83;3.10;;;20.20;90.60;;;;;;5011313;28;20571;-76
2022/06/10 09:00:23;;;;;;;9.37;2.70;;;20.10;83.10;;;;;;5015443;28;20497;-76
2022/06/10 09:03:17;;;;;;;6.50;3.03;;;20.10;87.10;;;;;;5011139;28;20433;-77
2022/06/10 09:06:10;;;;;;;8.67;2.70;;;20.10;79.30;;;;;;5000344;28;20974;-76
2022/06/10 09:08:57;;;;;;;7.83;2.80;;;20.20;86.00;;;;;;5012393;28;20977;-77
2022/06/10 09:11:51;;;;;;;9.10;3.20;;;20.40;91.40;;;;;;5018647;28;20918;-77
2022/06/10 09:14:36;;;;;;;9.60;4.00;;;20.50;85.40;;;;;;5011695;28;20977;-76
2022/06/10 09:17:31;;;;;;;7.33;3.70;;;20.60;82.20;;;;;;5007713;28;20985;-76
2022/06/10 09:20:24;;;;;;;5.50;2.87;;;20.70;82.70;;;;;;5009943;28;20450;-76
2022/06/10 09:23:17;;;;;;;6.27;2.80;;;20.70;84.30;;;;;;5010937;28;20444;-75
2022/06/10 09:26:10;;;;;;;8.40;3.20;;;20.70;80.10;;;;;;5008539;28;20524;-76
2022/06/10 09:28:57;;;;;;;5.07;2.90;;;20.80;80.00;;;;;;5020632;28;20490;-76
2022/06/10 09:31:48;;;;;;;6.07;3.27;;;20.90;79.60;;;;;;5011723;28;20421;-76
2022/06/10 09:34:51;;;;;;;5.80;2.80;;;20.90;74.20;;;;;;5019191;28;20532;-75
2022/06/10 09:37:45;;;;;;;8.87;3.30;;;21.00;74.50;;;;;;5022611;28;20583;-76
2022/06/10 09:40:39;;;;;;;7.50;3.90;;;21.00;76.60;;;;;;5019475;28;20814;-76
2022/06/10 09:43:43;;;;;;;17.77;2.73;;;21.00;74.00;;;;;;5009500;28;20419;-76
2022/06/10 09:46:58;;;;;;;6.13;2.37;;;21.00;73.80;;;;;;5012816;28;20467;-76
2022/06/10 09:49:58;;;;;;;7.87;3.50;;;21.20;71.50;;;;;;5016962;28;20540;-76
2022/06/10 09:52:58;;;;;;;7.13;2.60;;;21.30;72.40;;;;;;5022445;28;20437;-76
2022/06/10 09:56:02;;;;;;;10.80;2.80;;;21.40;76.30;;;;;;5014832;28;20416;-76
2022/06/10 09:59:01;;;;;;;7.60;2.90;;;21.50;78.10;;;;;;5010527;28;20516;-76
2022/06/10 10:01:58;;;;;;;11.70;2.30;;;21.60;63.30;;;;;;5017585;28;20724;-76
2022/06/10 10:04:59;;;;;;;7.90;3.00;;;21.30;63.50;;;;;;5013554;28;20449;-76
2022/06/10 10:07:50;;;;;;;10.23;3.40;;;21.30;61.70;;;;;;5016969;28;20445;-75
2022/06/10 10:10:40;;;;;;;4.70;2.13;;;21.20;63.50;;;;;;5010442;28;20444;-75
2022/06/10 10:13:51;;;;;;;7.57;3.47;;;21.30;62.80;;;;;;5023521;28;20418;-75
2022/06/10 10:16:46;;;;;;;8.00;3.80;;;21.50;66.70;;;;;;5011608;28;20444;-75
2022/06/10 10:19:51;;;;;;;8.17;2.70;;;21.40;64.60;;;;;;5026762;28;20446;-75
2022/06/10 10:22:53;;;;;;;7.50;2.60;;;21.50;62.70;;;;;;5008797;28;20469;-75
2022/06/10 10:25:41;;;;;;;11.40;2.60;;;21.70;63.40;;;;;;5006208;28;20452;-75
2022/06/10 10:28:31;;;;;;;5.67;2.23;;;21.80;65.50;;;;;;5017743;28;20592;-75
2022/06/10 10:31:23;;;;;;;6.87;2.90;;;21.90;59.80;;;;;;5011987;28;20432;-75
2022/06/10 10:34:18;;;;;;;10.37;2.40;;;22.10;60.20;;;;;;5011165;28;20419;-75
2022/06/10 10:37:06;;;;;;;4.33;1.90;;;22.30;57.00;;;;;;5011423;28;20435;-75
2022/06/10 10:39:54;;;;;;;6.33;2.23;;;22.40;59.70;;;;;;5014517;28;20424;-75
2022/06/10 10:42:43;;;;;;;9.03;2.10;;;22.50;53.50;;;;;;5023218;28;20464;-75
2022/06/10 10:45:33;;;;;;;7.13;2.20;;;22.40;51.80;;;;;;5010026;28;20458;-75
2022/06/10 10:48:25;;;;;;;4.90;1.93;;;22.40;47.70;;;;;;5019898;28;20573;-75
2022/06/10 10:51:21;;;;;;;10.20;2.00;;;22.40;51.50;;;;;;5021281;28;20429;-75
2022/06/10 10:54:13;;;;;;;7.13;2.20;;;22.20;46.40;;;;;;5007998;28;20457;-75
2022/06/10 10:57:00;;;;;;;8.57;1.93;;;22.20;47.90;;;;;;5023562;28;20456;-74
2022/06/10 10:59:46;;;;;;;4.33;1.80;;;22.40;52.10;;;;;;5024708;28;20421;-75
2022/06/10 11:02:36;;;;;;;5.77;1.40;;;22.50;49.10;;;;;;5021049;28;20612;-75
2022/06/10 11:05:31;;;;;;;7.17;2.10;;;22.60;45.30;;;;;;5009175;28;21134;-75
2022/06/10 11:08:30;;;;;;;6.20;1.90;;;22.70;43.20;;;;;;5017375;28;20441;-75
2022/06/10 11:11:22;;;;;;;7.07;2.60;;;22.90;47.60;;;;;;5018935;28;20813;-75
2022/06/10 11:14:20;;;;;;;8.27;2.60;;;23.00;44.90;;;;;;5004270;28;20478;-75
2022/06/10 11:17:17;;;;;;;7.97;2.50;;;23.00;45.40;;;;;;5010106;28;20464;-75
2022/06/10 11:20:25;;;;;;;7.20;2.00;;;23.10;47.60;;;;;;5019705;28;20802;-75
2022/06/10 11:23:18;;;;;;;6.07;2.43;;;23.10;42.90;;;;;;5008664;28;20985;-75
2022/06/10 11:26:11;;;;;;;8.57;2.47;;;23.10;43.90;;;;;;5016098;28;20448;-75
2022/06/10 11:29:01;;;;;;;4.20;1.80;;;23.10;44.90;;;;;;5018227;28;20450;-74
2022/06/10 11:31:50;;;;;;;5.33;1.80;;;23.20;43.00;;;;;;5018177;28;20506;-75
2022/06/10 11:34:41;;;;;;;4.93;1.50;;;23.30;42.30;;;;;;5006872;28;20487;-75
2022/06/10 11:37:33;;;;;;;8.97;2.00;;;23.50;41.20;;;;;;5013710;28;21009;-75
2022/06/10 11:40:26;;;;;;;3.97;1.50;;;23.60;41.00;;;;;;5014625;28;20443;-75
2022/06/10 11:43:18;;;;;;;7.67;2.67;;;23.50;35.70;;;;;;5007245;28;20529;-75
2022/06/10 11:46:08;;;;;;;5.37;1.50;;;23.50;39.00;;;;;;5014214;28;20444;-75
2022/06/10 11:48:59;;;;;;;3.10;1.50;;;23.70;41.60;;;;;;5020861;28;20489;-75
2022/06/10 11:51:51;;;;;;;3.83;1.70;;;23.80;36.20;;;;;;5019582;28;20493;-75
2022/06/10 11:54:44;;;;;;;3.73;1.30;;;23.90;38.40;;;;;;5007807;28;20450;-75
2022/06/10 12:00:45;;;;;;;4.90;1.63;;;24.10;35.70;;;;;;5016120;28;20482;-75
2022/06/10 12:03:37;;;;;;;6.40;2.00;;;24.10;31.90;;;;;;5011692;28;20520;-75
2022/06/10 12:06:30;;;;;;;6.23;1.73;;;24.00;30.50;;;;;;5011505;28;20465;-74
2022/06/10 12:09:22;;;;;;;5.20;1.30;;;24.20;29.90;;;;;;5013568;28;20539;-75
2022/06/10 12:12:15;;;;;;;3.63;1.30;;;24.30;29.90;;;;;;5016489;28;20452;-75
2022/06/10 12:15:07;;;;;;;7.30;1.30;;;24.40;30.00;;;;;;5014238;28;20443;-74
2022/06/10 12:17:57;;;;;;;5.63;1.97;;;24.50;32.50;;;;;;5020044;28;20468;-75
2022/06/10 12:20:47;;;;;;;7.77;1.63;;;24.50;31.60;;;;;;5019715;28;20443;-76
2022/06/10 12:23:36;;;;;;;5.77;1.40;;;24.60;30.20;;;;;;5009310;28;20519;-75
2022/06/10 12:26:31;;;;;;;3.57;1.43;;;24.60;30.10;;;;;;5004935;28;20462;-75
2022/06/10 12:29:23;;;;;;;5.63;1.53;;;24.70;29.00;;;;;;5003148;28;20453;-75
2022/06/10 12:32:18;;;;;;;3.43;1.10;;;24.80;25.80;;;;;;5012305;28;20452;-76
2022/06/10 12:35:10;;;;;;;4.70;1.20;;;24.80;26.90;;;;;;5015526;28;20508;-75
2022/06/10 12:38:00;;;;;;;4.40;1.17;;;25.10;29.40;;;;;;5015680;28;20771;-75
2022/06/10 12:40:50;;;;;;;6.80;1.30;;;25.20;28.30;;;;;;5015820;28;20437;-75
2022/06/10 12:43:41;;;;;;;5.87;2.63;;;25.30;25.80;;;;;;5007273;28;20527;-75
2022/06/10 12:46:40;;;;;;;3.40;1.57;;;25.30;26.10;;;;;;5012693;28;20555;-75
2022/06/10 12:49:33;;;;;;;4.60;1.20;;;25.40;26.60;;;;;;5013870;28;20453;-74
2022/06/10 12:52:34;;;;;;;3.00;1.20;;;25.50;26.20;;;;;;5010506;28;20581;-75
2022/06/10 12:55:27;;;;;;;4.97;1.50;;;25.60;26.30;;;;;;5016306;28;20487;-75
2022/06/10 12:58:44;;;;;;;7.47;1.73;;;25.60;26.40;;;;;;5025597;28;20483;-75
2022/06/10 13:01:44;;;;;;;7.33;1.50;;;25.70;27.30;;;;;;5020332;28;20449;-75
2022/06/10 13:04:56;;;;;;;3.90;1.33;;;25.80;25.40;;;;;;5016675;28;20451;-75
2022/06/10 13:07:41;;;;;;;5.10;1.70;;;25.70;26.10;;;;;;5015988;28;20810;-75
2022/06/10 13:10:44;;;;;;;4.77;1.47;;;25.90;28.10;;;;;;5022753;28;20817;-74
2022/06/10 13:13:30;;;;;;;3.30;1.20;;;25.70;25.30;;;;;;5010295;28;20445;-75
2022/06/10 13:16:37;;;;;;;7.20;1.50;;;25.70;28.20;;;;;;5021797;28;20514;-74
2022/06/10 13:19:36;;;;;;;7.13;1.70;;;25.80;26.00;;;;;;5019434;28;20556;-75
2022/06/10 13:22:33;;;;;;;3.73;1.50;;;25.90;25.90;;;;;;5011234;28;20989;-74
2022/06/10 13:25:27;;;;;;;3.10;1.03;;;26.10;26.80;;;;;;5015652;28;20503;-74
2022/06/10 13:28:24;;;;;;;5.00;1.43;;;26.20;26.40;;;;;;5021982;28;20460;-76
2022/06/10 13:31:16;;;;;;;5.90;1.73;;;26.10;25.50;;;;;;5024105;28;20523;-75
2022/06/10 13:34:03;;;;;;;8.37;1.40;;;26.20;25.30;;;;;;5013944;28;20514;-75
2022/06/10 13:36:55;;;;;;;2.87;1.27;;;26.30;26.50;;;;;;5020960;28;20816;-76
2022/06/10 13:39:45;;;;;;;6.37;1.90;;;26.50;26.50;;;;;;5024186;28;20440;-75
2022/06/10 13:42:35;;;;;;;3.97;1.37;;;26.70;26.60;;;;;;5011886;28;20896;-75
2022/06/10 13:45:25;;;;;;;3.60;1.30;;;26.70;26.30;;;;;;5018589;28;20573;-75
2022/06/10 13:48:14;;;;;;;8.53;1.30;;;26.80;26.40;;;;;;5021987;28;20448;-75
2022/06/10 13:51:18;;;;;;;3.33;1.40;;;26.80;25.00;;;;;;5014123;28;20533;-75
2022/06/10 13:54:15;;;;;;;4.93;1.20;;;26.80;23.50;;;;;;5010869;28;20440;-75
2022/06/10 13:57:17;;;;;;;5.20;1.77;;;26.70;22.50;;;;;;5019917;28;20516;-75
2022/06/10 14:00:07;;;;;;;3.90;1.43;;;26.60;24.50;;;;;;5024156;28;20441;-75
2022/06/10 14:02:55;;;;;;;5.83;1.30;;;26.80;23.60;;;;;;5014509;28;20552;-75
2022/06/10 14:05:42;;;;;;;8.60;1.63;;;26.80;24.60;;;;;;5019794;28;20963;-74
2022/06/10 14:08:30;;;;;;;6.80;1.60;;;26.80;22.60;;;;;;5023811;28;20444;-75
2022/06/10 14:11:28;;;;;;;2.77;1.30;;;26.80;25.30;;;;;;5017104;28;20917;-74
2022/06/10 14:14:19;;;;;;;3.50;1.63;;;26.90;24.70;;;;;;5019060;28;20449;-75
2022/06/10 14:17:14;;;;;;;8.13;1.57;;;26.80;24.00;;;;;;5011137;28;21126;-75
2022/06/10 14:20:02;;;;;;;3.30;1.23;;;26.80;23.40;;;;;;5008963;28;20835;-74
2022/06/10 14:22:48;;;;;;;4.30;1.40;;;26.90;23.40;;;;;;5008257;28;20481;-74
2022/06/10 14:25:35;;;;;;;2.70;1.10;;;26.90;22.90;;;;;;5011373;28;20966;-74
2022/06/10 14:28:22;;;;;;;3.47;1.20;;;27.00;23.30;;;;;;5018457;28;20519;-75
2022/06/10 14:31:22;;;;;;;4.17;1.40;;;27.10;24.00;;;;;;5014080;28;20465;-74
2022/06/10 14:34:15;;;;;;;8.13;2.17;;;27.00;23.60;;;;;;5010928;28;20442;-74
2022/06/10 14:37:07;;;;;;;5.63;1.30;;;27.20;23.90;;;;;;5016580;28;20507;-74
2022/06/10 14:40:07;;;;;;;14.07;1.90;;;27.30;24.80;;;;;;5009734;28;20457;-75
2022/06/10 14:43:13;;;;;;;5.43;1.67;;;27.40;24.70;;;;;;5006553;28;20486;-74
2022/06/10 14:46:07;;;;;;;4.00;1.30;;;27.50;24.50;;;;;;5003714;28;20792;-76
2022/06/10 14:48:54;;;;;;;5.33;1.30;;;27.40;23.70;;;;;;5012048;28;20508;-76
2022/06/10 14:51:42;;;;;;;4.33;1.50;;;27.10;23.00;;;;;;5006932;28;22053;-75
2022/06/10 14:54:28;;;;;;;7.50;1.40;;;26.80;22.40;;;;;;5015912;28;20441;-76
2022/06/10 14:57:20;;;;;;;6.20;1.50;;;26.50;23.90;;;;;;5018618;28;20985;-76
2022/06/10 15:00:11;;;;;;;5.00;2.20;;;26.70;24.80;;;;;;5015232;28;20850;-76
2022/06/10 15:02:58;;;;;;;6.60;1.77;;;26.90;25.90;;;;;;5008473;28;20552;-76
2022/06/10 15:08:50;;;;;;;4.00;1.43;;;27.00;23.00;;;;;;5006946;28;20448;-75